Time;durP1;ratioP1;P1;durP2;ratioP2;P2;SDS_P1;SDS_P2;PMS_P1;PMS_P2;Temp;Humidity;BMP_temperature;BMP_pressure;BME280_temperature;BME280_humidity;BME280_pressure;Samples;Min_cycle;Max_cycle;Signal;HPM_P1;HPM_P2
2022/03/15 00:01:02;;;;;;;18.48;9.20;;;3.40;99.90;;;;;;4912650;29;20516;-81
2022/03/15 00:03:46;;;;;;;22.77;9.15;;;3.40;99.90;;;;;;4888073;29;20043;-82
2022/03/15 00:06:30;;;;;;;;;;;3.40;99.90;;;;;;4915520;29;20086;-83
2022/03/15 00:09:14;;;;;;;20.80;9.38;;;3.40;99.90;;;;;;4901448;29;19967;-82
2022/03/15 00:12:01;;;;;;;23.35;10.52;;;3.30;99.90;;;;;;4915637;29;20095;-81
2022/03/15 00:14:45;;;;;;;23.13;10.30;;;4.00;99.90;;;;;;4874582;29;20108;-82
2022/03/15 00:17:30;;;;;;;18.13;9.68;;;3.40;99.90;;;;;;4903878;29;20043;-83
2022/03/15 00:20:18;;;;;;;22.77;10.13;;;3.40;99.90;;;;;;4904492;29;20502;-82
2022/03/15 00:23:03;;;;;;;20.73;10.00;;;4.50;99.90;;;;;;4904958;29;20040;-82
2022/03/15 00:25:47;;;;;;;22.45;9.52;;;3.50;99.90;;;;;;4904019;29;20111;-82
2022/03/15 00:28:31;;;;;;;13.77;8.27;;;3.50;99.90;;;;;;4902396;29;20103;-83
2022/03/15 00:31:15;;;;;;;25.52;9.85;;;3.40;99.90;;;;;;4891508;29;20103;-82
2022/03/15 00:34:00;;;;;;;22.33;9.77;;;4.30;99.90;;;;;;4904641;29;20377;-82
2022/03/15 00:36:44;;;;;;;20.52;10.18;;;3.40;99.90;;;;;;4890768;29;20574;-82
2022/03/15 00:39:28;;;;;;;29.38;10.88;;;3.40;99.90;;;;;;4871178;29;20040;-83
2022/03/15 00:42:12;;;;;;;26.15;11.48;;;3.40;99.90;;;;;;4899637;29;20075;-82
2022/03/15 00:44:59;;;;;;;20.75;10.00;;;4.00;99.90;;;;;;4897451;29;20096;-82
2022/03/15 00:47:44;;;;;;;26.40;11.65;;;3.50;99.90;;;;;;4890812;29;20120;-82
2022/03/15 00:50:29;;;;;;;26.45;12.00;;;3.50;99.90;;;;;;4917207;29;20051;-83
2022/03/15 00:53:14;;;;;;;24.50;11.38;;;3.50;99.90;;;;;;4891197;29;20051;-82
2022/03/15 00:55:58;;;;;;;29.95;13.88;;;3.60;99.90;;;;;;4918114;29;20134;-82
2022/03/15 00:58:42;;;;;;;27.33;11.13;;;3.60;99.90;;;;;;4903000;29;20078;-82
2022/03/15 01:01:26;;;;;;;;;;;3.50;99.90;;;;;;4904224;29;20119;-81
2022/03/15 01:04:10;;;;;;;29.08;13.25;;;3.50;99.90;;;;;;4918411;29;19921;-81
2022/03/15 01:06:54;;;;;;;27.30;13.27;;;3.50;99.90;;;;;;4918006;29;20099;-82
2022/03/15 01:09:39;;;;;;;;;;;3.50;99.90;;;;;;4903806;29;20139;-82
2022/03/15 01:12:23;;;;;;;;;;;3.60;99.90;;;;;;4909782;29;19938;-81
2022/03/15 01:15:07;;;;;;;;;;;4.40;99.90;;;;;;4899914;29;19970;-82
2022/03/15 01:17:51;;;;;;;;;;;3.60;99.90;;;;;;4899169;29;20652;-82
2022/03/15 01:20:38;;;;;;;;;;;4.20;99.90;;;;;;4917744;29;20007;-82
2022/03/15 01:23:23;;;;;;;;;;;5.50;99.90;;;;;;4897968;29;20409;-82
2022/03/15 01:26:07;;;;;;;;;;;3.50;99.90;;;;;;4899423;29;19926;-82
2022/03/15 01:28:51;;;;;;;;;;;4.30;99.90;;;;;;4898002;29;20155;-82
2022/03/15 01:31:35;;;;;;;;;;;3.50;99.90;;;;;;4884668;29;20273;-83
2022/03/15 01:34:20;;;;;;;;;;;3.50;99.90;;;;;;4898507;29;19944;-82
2022/03/15 01:37:04;;;;;;;;;;;3.40;99.90;;;;;;4899232;29;19967;-82
2022/03/15 01:39:49;;;;;;;;;;;3.40;99.90;;;;;;4903206;29;19922;-82
2022/03/15 01:42:33;;;;;;;;;;;3.50;99.90;;;;;;4903647;29;19917;-84
2022/03/15 01:45:17;;;;;;;;;;;3.40;99.90;;;;;;4918040;29;19983;-82
2022/03/15 01:48:02;;;;;;;;;;;3.40;99.90;;;;;;4903716;29;19926;-82
2022/03/15 01:50:47;;;;;;;;;;;3.40;99.90;;;;;;4889184;29;20296;-82
2022/03/15 01:53:31;;;;;;;;;;;3.50;99.90;;;;;;4918010;29;19918;-82
2022/03/15 01:56:15;;;;;;;;;;;3.50;99.90;;;;;;4903676;29;20022;-82
2022/03/15 01:59:00;;;;;;;;;;;4.20;99.90;;;;;;4917502;29;19962;-82
2022/03/15 02:01:46;;;;;;;;;;;4.10;99.90;;;;;;4889820;29;19994;-82
2022/03/15 02:04:32;;;;;;;;;;;3.80;99.90;;;;;;4917687;29;19966;-82
2022/03/15 02:07:16;;;;;;;;;;;3.80;99.90;;;;;;4901662;29;20383;-82
2022/03/15 02:10:00;;;;;;;;;;;3.60;99.90;;;;;;4883977;29;20021;-82
2022/03/15 02:12:44;;;;;;;;;;;4.10;99.90;;;;;;4897094;29;19954;-82
2022/03/15 02:15:28;;;;;;;;;;;4.10;99.90;;;;;;4897699;29;19962;-81
2022/03/15 02:18:12;;;;;;;;;;;4.60;99.90;;;;;;4898875;29;19934;-81
2022/03/15 02:20:56;;;;;;;;;;;3.50;99.90;;;;;;4883886;29;20329;-81
2022/03/15 02:23:41;;;;;;;;;;;3.60;99.90;;;;;;4883840;29;19958;-83
2022/03/15 02:26:25;;;;;;;;;;;4.50;99.90;;;;;;4884681;29;19926;-81
2022/03/15 02:29:09;;;;;;;;;;;3.50;99.90;;;;;;4898589;29;19922;-82
2022/03/15 02:31:53;;;;;;;;;;;4.40;99.90;;;;;;4896825;29;19942;-82
2022/03/15 02:34:37;;;;;;;;;;;4.30;99.90;;;;;;4884129;29;19963;-82
2022/03/15 02:37:23;;;;;;;;;;;3.60;99.90;;;;;;4897410;29;19965;-81
2022/03/15 02:40:08;;;;;;;;;;;4.10;99.90;;;;;;4884730;29;19982;-82
2022/03/15 02:42:51;;;;;;;;;;;3.70;99.90;;;;;;4896678;29;20017;-82
2022/03/15 02:45:36;;;;;;;;;;;4.20;99.90;;;;;;4903711;29;19926;-82
2022/03/15 02:48:20;;;;;;;;;;;5.10;99.90;;;;;;4889530;29;20089;-82
2022/03/15 02:51:08;;;;;;;;;;;3.90;99.90;;;;;;4888754;29;19994;-81
2022/03/15 02:53:53;;;;;;;;;;;4.00;99.90;;;;;;4916302;29;19967;-82
2022/03/15 02:56:42;;;;;;;;;;;4.00;99.90;;;;;;4903237;29;19954;-82
2022/03/15 02:59:28;;;;;;;;;;;4.00;99.90;;;;;;4883740;29;19973;-82
2022/03/15 03:02:13;;;;;;;;;;;4.10;99.90;;;;;;4898066;29;20371;-82
2022/03/15 03:04:57;;;;;;;;;;;4.50;99.90;;;;;;4882896;29;19942;-82
2022/03/15 03:07:42;;;;;;;;;;;4.10;99.90;;;;;;4898218;29;19923;-82
2022/03/15 03:10:26;;;;;;;;;;;4.30;99.90;;;;;;4902309;29;20100;-81
2022/03/15 03:13:11;;;;;;;;;;;4.20;99.90;;;;;;4901257;29;19967;-82
2022/03/15 03:15:56;;;;;;;;;;;5.10;99.90;;;;;;4888612;29;19922;-82
2022/03/15 03:18:40;;;;;;;;;;;4.20;99.90;;;;;;4888960;29;19925;-82
2022/03/15 03:21:25;;;;;;;;;;;5.40;99.90;;;;;;4916508;29;19922;-82
2022/03/15 03:24:10;;;;;;;;;;;4.30;99.90;;;;;;4915739;29;20379;-82
2022/03/15 03:26:54;;;;;;;;;;;4.30;99.90;;;;;;4899653;29;20085;-82
2022/03/15 03:29:40;;;;;;;;;;;4.70;99.90;;;;;;4901835;29;20279;-82
2022/03/15 03:32:25;;;;;;;;;;;4.20;99.90;;;;;;4916487;29;19918;-82
2022/03/15 03:35:09;;;;;;;;;;;4.60;99.90;;;;;;4888247;29;20154;-82
2022/03/15 03:37:53;;;;;;;;;;;4.50;99.90;;;;;;4882732;29;20030;-82
2022/03/15 03:40:38;;;;;;;;;;;4.10;99.90;;;;;;4883212;29;19922;-82
2022/03/15 03:43:23;;;;;;;;;;;4.10;99.90;;;;;;4896477;29;20383;-82
2022/03/15 03:46:07;;;;;;;;;;;4.30;99.90;;;;;;4873145;29;19926;-82
2022/03/15 03:48:52;;;;;;;;;;;4.00;99.90;;;;;;4914132;29;20010;-84
2022/03/15 03:51:36;;;;;;;;;;;5.00;99.90;;;;;;4914986;29;19917;-82
2022/03/15 03:54:21;;;;;;;;;;;3.90;99.90;;;;;;4904393;29;19917;-82
2022/03/15 03:57:05;;;;;;;;;;;5.70;99.90;;;;;;4919399;29;19978;-82
2022/03/15 03:59:49;;;;;;;;;;;4.30;99.90;;;;;;4905432;29;19929;-81
2022/03/15 04:02:33;;;;;;;;;;;4.00;99.90;;;;;;4919946;29;19921;-82
2022/03/15 04:05:18;;;;;;;;;;;4.00;99.90;;;;;;4889250;29;19923;-82
2022/03/15 04:08:02;;;;;;;;;;;4.10;99.90;;;;;;4886206;29;19963;-82
2022/03/15 04:10:46;;;;;;;;;;;4.30;99.90;;;;;;4900837;29;19966;-81
2022/03/15 04:13:30;;;;;;;;;;;4.20;99.90;;;;;;4900835;29;20323;-82
2022/03/15 04:16:15;;;;;;;;;;;4.20;99.90;;;;;;4899266;29;20564;-82
2022/03/15 04:18:59;;;;;;;;;;;4.70;99.90;;;;;;4907620;29;19932;-82
2022/03/15 04:21:43;;;;;;;;;;;5.10;99.90;;;;;;4905290;29;20400;-81
2022/03/15 04:24:27;;;;;;;;;;;4.30;99.90;;;;;;4886487;29;20053;-82
2022/03/15 04:27:12;;;;;;;;;;;4.40;99.90;;;;;;4918340;29;20427;-82
2022/03/15 04:29:56;;;;;;;;;;;4.40;99.90;;;;;;4918000;29;19938;-84
2022/03/15 04:32:40;;;;;;;;;;;4.50;99.90;;;;;;4879534;29;19922;-81
2022/03/15 04:35:24;;;;;;;;;;;4.60;99.90;;;;;;4885994;29;20371;-82
2022/03/15 04:38:08;;;;;;;;;;;4.60;99.90;;;;;;4885581;29;19918;-82
2022/03/15 04:40:53;;;;;;;;;;;5.60;99.90;;;;;;4886172;29;19923;-81
2022/03/15 04:43:37;;;;;;;;;;;4.70;99.90;;;;;;4900349;29;19922;-82
2022/03/15 04:46:23;;;;;;;;;;;4.80;99.90;;;;;;4888764;29;20383;-82
2022/03/15 04:49:07;;;;;;;;;;;5.50;99.90;;;;;;4903987;29;19926;-82
2022/03/15 04:51:51;;;;;;;;;;;5.20;99.90;;;;;;4891442;29;19969;-81
2022/03/15 04:54:35;;;;;;;;;;;4.80;99.90;;;;;;4904809;29;19949;-82
2022/03/15 04:57:20;;;;;;;;;;;6.00;99.90;;;;;;4918178;29;20017;-82
2022/03/15 05:00:08;;;;;;;;;;;4.80;99.90;;;;;;4909883;29;20280;-82
2022/03/15 05:02:52;;;;;;;;;;;4.80;99.90;;;;;;4898859;29;19922;-81
2022/03/15 05:05:36;;;;;;;;;;;4.80;99.90;;;;;;4898908;29;19975;-81
2022/03/15 05:08:21;;;;;;;;;;;4.80;99.90;;;;;;4898431;29;19988;-82
2022/03/15 05:11:08;;;;;;;;;;;4.80;99.90;;;;;;4899266;29;19977;-82
2022/03/15 05:13:52;;;;;;;;;;;4.80;99.90;;;;;;4899951;29;19968;-81
2022/03/15 05:16:36;;;;;;;;;;;4.80;99.90;;;;;;4885495;29;20067;-82
2022/03/15 05:19:21;;;;;;;;;;;4.80;99.90;;;;;;4899038;29;19926;-82
2022/03/15 05:22:05;;;;;;;;;;;5.10;99.90;;;;;;4911754;29;19918;-83
2022/03/15 05:24:49;;;;;;;;;;;5.00;99.90;;;;;;4904155;29;20009;-81
2022/03/15 05:27:34;;;;;;;;;;;4.80;99.90;;;;;;4903142;29;20494;-82
2022/03/15 05:30:18;;;;;;;;;;;5.40;99.90;;;;;;4917600;29;20324;-82
2022/03/15 05:33:02;;;;;;;;;;;4.80;99.90;;;;;;4901783;29;19922;-82
2022/03/15 05:35:46;;;;;;;;;;;5.70;99.90;;;;;;4901579;29;20087;-81
2022/03/15 05:38:30;;;;;;;;;;;4.80;99.90;;;;;;4904521;29;19922;-82
2022/03/15 05:41:15;;;;;;;;;;;4.90;99.90;;;;;;4896857;29;19930;-82
2022/03/15 05:43:59;;;;;;;;;;;4.90;99.90;;;;;;4907074;29;20278;-82
2022/03/15 05:46:43;;;;;;;;;;;4.90;99.90;;;;;;4935883;29;20378;-81
2022/03/15 05:49:27;;;;;;;;;;;4.90;99.90;;;;;;4935489;29;20663;-81
2022/03/15 05:52:11;;;;;;;;;;;5.40;99.90;;;;;;4937137;29;19921;-81
2022/03/15 05:54:56;;;;;;;;;;;4.90;99.90;;;;;;4937104;29;19926;-81
2022/03/15 05:57:40;;;;;;;;;;;5.00;99.90;;;;;;4922398;29;20418;-80
2022/03/15 06:00:26;;;;;;;;;;;5.20;99.90;;;;;;4921736;29;19973;-81
2022/03/15 06:03:11;;;;;;;;;;;5.00;99.90;;;;;;4936212;29;19917;-86
2022/03/15 06:05:55;;;;;;;;;;;5.00;99.90;;;;;;4935692;29;19973;-81
2022/03/15 06:08:39;;;;;;;;;;;5.00;99.90;;;;;;4936650;29;20390;-81
2022/03/15 06:11:23;;;;;;;;;;;5.50;99.90;;;;;;4935087;29;19925;-81
2022/03/15 06:14:08;;;;;;;;;;;5.10;99.90;;;;;;4935125;29;20283;-81
2022/03/15 06:16:52;;;;;;;;;;;5.10;99.90;;;;;;4936531;29;19981;-81
2022/03/15 06:19:36;;;;;;;;;;;5.40;99.90;;;;;;4936320;29;19921;-81
2022/03/15 06:22:20;;;;;;;;;;;6.00;99.90;;;;;;4934923;29;20417;-81
2022/03/15 06:25:05;;;;;;;;;;;5.20;99.90;;;;;;4921896;29;19976;-81
2022/03/15 06:27:49;;;;;;;;;;;5.20;99.90;;;;;;4922036;29;19925;-81
2022/03/15 06:30:33;;;;;;;;;;;5.70;99.90;;;;;;4935627;29;20387;-81
2022/03/15 06:33:17;;;;;;;;;;;5.30;99.90;;;;;;4921258;29;20421;-81
2022/03/15 06:36:02;;;;;;;;;;;5.30;99.90;;;;;;4935137;29;19922;-81
2022/03/15 06:38:46;;;;;;;;;;;5.30;99.90;;;;;;4921620;29;20022;-81
2022/03/15 06:41:30;;;;;;;;;;;5.40;99.90;;;;;;4920985;29;19941;-82
2022/03/15 06:44:15;;;;;;;;;;;5.40;99.90;;;;;;4935431;29;19933;-83
2022/03/15 06:47:00;;;;;;;;;;;5.40;99.90;;;;;;4934855;29;20331;-81
2022/03/15 06:49:44;;;;;;;;;;;5.50;99.90;;;;;;4921473;29;20463;-81
2022/03/15 06:52:29;;;;;;;;;;;5.50;99.90;;;;;;4935186;29;19917;-82
2022/03/15 06:55:13;;;;;;;;;;;5.60;99.90;;;;;;4934896;29;19921;-81
2022/03/15 06:57:58;;;;;;;;;;;5.60;99.90;;;;;;4935843;29;19918;-81
2022/03/15 07:00:43;;;;;;;;;;;5.80;99.90;;;;;;4935491;29;20007;-81
2022/03/15 07:03:27;;;;;;;;;;;5.70;99.90;;;;;;4920743;29;19933;-81
2022/03/15 07:06:12;;;;;;;;;;;5.70;99.90;;;;;;4935638;29;20072;-81
2022/03/15 07:08:56;;;;;;;;;;;5.80;99.90;;;;;;4921380;29;19965;-81
2022/03/15 07:11:40;;;;;;;;;;;5.70;99.90;;;;;;4934124;29;19921;-81
2022/03/15 07:14:24;;;;;;;;;;;5.80;99.90;;;;;;4934010;29;19966;-81
2022/03/15 07:17:09;;;;;;;;;;;5.80;99.90;;;;;;4930281;29;19922;-81
2022/03/15 07:19:53;;;;;;;;;;;5.80;99.90;;;;;;4935496;29;19921;-81
2022/03/15 07:22:37;;;;;;;;;;;5.90;99.90;;;;;;4920495;29;19921;-81
2022/03/15 07:25:22;;;;;;;;;;;5.90;99.90;;;;;;4934091;29;19926;-81
2022/03/15 07:28:06;;;;;;;;;;;5.90;99.90;;;;;;4935493;29;19938;-81
2022/03/15 07:30:50;;;;;;;;;;;5.90;99.90;;;;;;4934506;29;19921;-81
2022/03/15 07:33:34;;;;;;;;;;;6.00;99.90;;;;;;4920269;29;19922;-82
2022/03/15 07:36:19;;;;;;;;;;;6.00;99.90;;;;;;4935322;29;19921;-82
2022/03/15 07:39:04;;;;;;;;;;;6.00;99.90;;;;;;4934384;29;19941;-80
2022/03/15 07:41:50;;;;;;;;;;;6.00;99.90;;;;;;4920827;29;19994;-81
2022/03/15 07:44:34;;;;;;;;;;;6.20;99.90;;;;;;4920246;29;19930;-81
2022/03/15 07:47:18;;;;;;;;;;;6.10;99.90;;;;;;4920708;29;19941;-81
2022/03/15 07:50:02;;;;;;;;;;;6.50;99.90;;;;;;4935351;29;19921;-81
2022/03/15 07:52:48;;;;;;;;;;;6.10;99.90;;;;;;4920416;29;19918;-81
2022/03/15 07:55:32;;;;;;;;;;;6.20;99.90;;;;;;4920119;29;19922;-81
2022/03/15 07:58:17;;;;;;;;;;;6.10;99.90;;;;;;4920858;29;20283;-81
2022/03/15 08:01:01;;;;;;;;;;;6.20;99.90;;;;;;4920729;29;19973;-81
2022/03/15 08:03:45;;;;;;;;;;;6.20;99.90;;;;;;4920116;29;19925;-81
2022/03/15 08:06:30;;;;;;;;;;;6.20;99.90;;;;;;4933466;29;20483;-80
2022/03/15 08:09:14;;;;;;;;;;;6.30;99.90;;;;;;4935086;29;19922;-80
2022/03/15 08:11:59;;;;;;;;;;;6.50;99.90;;;;;;4934204;29;19970;-80
2022/03/15 08:14:45;;;;;;;;;;;6.40;99.90;;;;;;4920117;29;19941;-81
2022/03/15 08:17:29;;;;;;;;;;;6.30;99.90;;;;;;4920013;29;19986;-81
2022/03/15 08:20:20;;;;;;;;;;;6.40;99.90;;;;;;4920602;29;20287;-81
2022/03/15 08:23:04;;;;;;;;;;;6.40;99.90;;;;;;4935073;29;19942;-81
2022/03/15 08:25:48;;;;;;;;;;;6.50;99.90;;;;;;4933385;29;19965;-81
2022/03/15 08:28:32;;;;;;;;;;;6.50;99.90;;;;;;4919978;29;20028;-81
2022/03/15 08:31:17;;;;;;;;;;;6.60;99.90;;;;;;4920532;29;19922;-81
2022/03/15 08:34:01;;;;;;;;;;;6.60;99.90;;;;;;4920472;29;19937;-81
2022/03/15 08:36:46;;;;;;;;;;;6.60;99.90;;;;;;4920532;29;19926;-81
2022/03/15 08:39:30;;;;;;;;;;;6.70;99.90;;;;;;4936834;29;19969;-81
2022/03/15 08:42:14;;;;;;;;;;;6.70;99.90;;;;;;4938339;29;19985;-81
2022/03/15 08:44:58;;;;;;;;;;;6.70;99.90;;;;;;4938146;29;19921;-81
2022/03/15 08:47:43;;;;;;;;;;;6.80;99.90;;;;;;4923157;29;19922;-81
2022/03/15 08:50:27;;;;;;;;;;;6.80;99.90;;;;;;4938118;29;19934;-81
2022/03/15 08:53:11;;;;;;;;;;;6.90;99.90;;;;;;4923645;29;20319;-81
2022/03/15 08:55:55;;;;;;;;;;;7.00;99.90;;;;;;4937054;29;20379;-81
2022/03/15 08:58:39;;;;;;;;;;;7.00;99.90;;;;;;4937289;29;19921;-81
2022/03/15 09:01:23;;;;;;;;;;;7.10;99.90;;;;;;4937118;29;20355;-81
2022/03/15 09:04:08;;;;;;;;;;;7.50;99.90;;;;;;4923460;29;19947;-81
2022/03/15 09:06:52;;;;;;;;;;;7.20;99.90;;;;;;4937229;29;19925;-81
2022/03/15 09:09:37;;;;;;;;;;;7.20;99.90;;;;;;4936218;29;19974;-81
2022/03/15 09:12:21;;;;;;;;;;;7.30;99.90;;;;;;4937825;29;20447;-81
2022/03/15 09:15:05;;;;;;;;;;;7.30;99.90;;;;;;4923123;29;19921;-81
2022/03/15 09:17:49;;;;;;;;;;;7.40;99.90;;;;;;4937016;29;19922;-81
2022/03/15 09:20:34;;;;;;;;;;;7.40;99.90;;;;;;4936200;29;20299;-83
2022/03/15 09:23:19;;;;;;;;;;;7.40;99.90;;;;;;4936704;29;19922;-81
2022/03/15 09:26:03;;;;;;;;;;;7.50;99.90;;;;;;4936440;29;19970;-81
2022/03/15 09:28:47;;;;;;;;;;;7.70;99.90;;;;;;4922417;29;19925;-81
2022/03/15 09:31:31;;;;;;;;;;;7.60;99.90;;;;;;4937461;29;19922;-81
2022/03/15 09:34:17;;;;;;;;;;;7.90;99.90;;;;;;4936342;29;19922;-81
2022/03/15 09:37:02;;;;;;;;;;;7.70;99.90;;;;;;4922857;29;19927;-81
2022/03/15 09:39:46;;;;;;;;;;;7.70;99.90;;;;;;4922263;29;19922;-81
2022/03/15 09:42:31;;;;;;;;;;;7.80;99.90;;;;;;4937416;29;19918;-81
2022/03/15 09:45:20;;;;;;;;;;;8.00;99.90;;;;;;4922678;29;20283;-81
2022/03/15 09:48:08;;;;;;;;;;;7.90;99.90;;;;;;4922233;29;19975;-81
2022/03/15 09:50:52;;;;;;;;;;;8.00;99.90;;;;;;4936466;29;19918;-81
2022/03/15 09:53:37;;;;;;;;;;;8.10;99.90;;;;;;4922356;29;20013;-83
2022/03/15 09:56:21;;;;;;;;;;;8.10;99.90;;;;;;4922446;29;19917;-81
2022/03/15 09:59:16;;;;;;;;;;;8.20;99.90;;;;;;4922683;29;19926;-81
2022/03/15 10:02:00;;;;;;;;;;;8.20;99.90;;;;;;4936285;29;19974;-81
2022/03/15 10:04:44;;;;;;;;;;;8.20;99.90;;;;;;4936236;29;19970;-82
2022/03/15 10:07:28;;;;;;;;;;;8.30;99.90;;;;;;4936861;29;20291;-81
2022/03/15 10:10:14;;;;;;;;;;;8.20;99.90;;;;;;4922394;29;19934;-81
2022/03/15 10:12:58;;;;;;;;;;;8.40;99.90;;;;;;4921462;29;20032;-81
2022/03/15 10:15:52;;;;;;;;;;;8.40;99.90;;;;;;4921571;29;20013;-81
2022/03/15 10:18:36;;;;;;;;;;;8.50;99.90;;;;;;4922119;29;19917;-81
2022/03/15 10:21:24;;;;;;;;;;;8.60;99.90;;;;;;4936441;29;20359;-81
2022/03/15 10:24:09;;;;;;;;;;;8.60;99.90;;;;;;4921967;29;20009;-81
2022/03/15 10:26:54;;;;;;;;;;;8.70;99.90;;;;;;4934724;29;19925;-81
2022/03/15 10:29:39;;;;;;;;;;;8.70;99.90;;;;;;4936337;29;19922;-81
2022/03/15 10:32:23;;;;;;;;;;;8.70;99.90;;;;;;4922018;29;19917;-81
2022/03/15 10:35:08;;;;;;;;;;;9.10;99.90;;;;;;4935998;29;19956;-81
2022/03/15 10:37:53;;;;;;;;;;;8.80;99.90;;;;;;4935541;29;19962;-81
2022/03/15 10:40:55;;;;;;;;;;;8.90;99.90;;;;;;4936096;29;19917;-81
2022/03/15 10:43:40;;;;;;;;;;;9.00;99.90;;;;;;4936014;29;19958;-81
2022/03/15 10:46:25;;;;;;;;;;;9.00;99.90;;;;;;4921580;29;19926;-81
2022/03/15 10:49:09;;;;;;;;;;;9.20;99.90;;;;;;4921287;29;20284;-81
2022/03/15 10:51:54;;;;;;;;;;;9.20;99.90;;;;;;4935394;29;19921;-81
2022/03/15 10:54:38;;;;;;;;;;;9.20;99.90;;;;;;4934874;29;19921;-81
2022/03/15 10:57:22;;;;;;;;;;;9.20;99.90;;;;;;4935784;29;19922;-81
2022/03/15 11:00:06;;;;;;;;;;;9.20;99.90;;;;;;4934787;29;20352;-81
2022/03/15 11:02:51;;;;;;;;;;;9.20;99.90;;;;;;4934212;29;19921;-81
2022/03/15 11:05:36;;;;;;;;;;;9.30;99.90;;;;;;4921159;29;19922;-81
2022/03/15 11:08:22;;;;;;;;;;;9.30;99.90;;;;;;4935857;29;19921;-81
2022/03/15 11:11:06;;;;;;;;;;;9.40;99.90;;;;;;4920601;29;19925;-81
2022/03/15 11:13:50;;;;;;;;;;;9.30;99.90;;;;;;4920596;29;19962;-81
2022/03/15 11:16:36;;;;;;;;;;;9.30;99.90;;;;;;4935511;29;20426;-80
2022/03/15 11:19:20;;;;;;;;;;;9.30;99.90;;;;;;4921066;29;19917;-81
2022/03/15 11:22:05;;;;;;;;;;;9.30;99.90;;;;;;4920555;29;19969;-80
2022/03/15 11:24:54;;;;;;;;;;;9.40;99.90;;;;;;4920566;29;19922;-83
2022/03/15 11:27:42;;;;;;;;;;;9.50;99.90;;;;;;4920977;29;19941;-81
2022/03/15 11:30:27;;;;;;;;;;;9.60;99.90;;;;;;4935522;29;19922;-81
2022/03/15 11:33:11;;;;;;;;;;;9.70;99.90;;;;;;4934767;29;19917;-80
2022/03/15 11:35:59;;;;;;;;;;;9.90;99.90;;;;;;4933808;29;19962;-81
2022/03/15 11:38:44;;;;;;;;;;;10.00;99.90;;;;;;4920938;29;19921;-81
2022/03/15 11:41:29;;;;;;;;;;;10.10;99.90;;;;;;4920865;29;20370;-81
2022/03/15 11:44:19;;;;;;;;;;;10.30;99.90;;;;;;4933664;29;19938;-81
2022/03/15 11:47:15;;;;;;;;;;;10.30;99.90;;;;;;4920132;29;19922;-81
2022/03/15 11:50:03;;;;;;;;;;;10.30;99.90;;;;;;4934609;29;19922;-81
2022/03/15 11:52:50;;;;;;;;;;;10.40;99.90;;;;;;4920695;29;19917;-81
2022/03/15 11:55:40;;;;;;;;;;;10.40;99.90;;;;;;4935075;29;19977;-81
2022/03/15 11:58:26;;;;;;;;;;;10.40;99.90;;;;;;4935167;29;20390;-81
2022/03/15 12:01:10;;;;;;;;;;;11.00;99.90;;;;;;4934653;29;19973;-80
2022/03/15 12:03:58;;;;;;;;;;;10.60;99.90;;;;;;4920161;29;19922;-83
2022/03/15 12:06:59;;;;;;;;;;;10.60;99.90;;;;;;4934967;29;19930;-81
2022/03/15 12:09:45;;;;;;;;;;;10.60;99.90;;;;;;4920483;29;19925;-81
2022/03/15 12:12:29;;;;;;;;;;;10.70;99.90;;;;;;4922151;29;19980;-81
2022/03/15 12:15:15;;;;;;;;;;;10.70;99.90;;;;;;4938181;29;19973;-81
2022/03/15 12:18:27;;;;;;;;;;;10.80;99.90;;;;;;4937065;29;19921;-81
2022/03/15 12:21:08;;;;;;;;;;;10.80;99.90;;;;;;4938098;29;19934;-81
2022/03/15 12:23:53;;;;;;;;;;;10.90;99.90;;;;;;4938679;29;19917;-81
2022/03/15 12:26:37;;;;;;;;;;;11.00;99.90;;;;;;4924051;29;19929;-81
2022/03/15 12:29:21;;;;;;;;;;;11.10;99.90;;;;;;4938263;29;19940;-81
2022/03/15 12:32:24;;;;;;;;;;;11.20;99.90;;;;;;4923480;29;20244;-81
2022/03/15 12:35:11;;;;;;;;;;;11.20;99.90;;;;;;4937869;29;19918;-81
2022/03/15 12:38:05;;;;;;;;;;;11.30;99.90;;;;;;4923947;29;20005;-80
2022/03/15 12:40:49;;;;;;;;;;;11.40;99.90;;;;;;4923904;29;19958;-81
2022/03/15 12:43:34;;;;;;;;;;;11.50;99.90;;;;;;4924026;29;19925;-80
2022/03/15 12:46:20;;;;;;;;;;;11.50;99.90;;;;;;4923169;29;19918;-81
2022/03/15 12:49:08;;;;;;;;;;;11.50;99.90;;;;;;4937696;29;19974;-80
2022/03/15 12:51:54;;;;;;;;;;;11.70;99.90;;;;;;4938107;29;19917;-81
2022/03/15 12:54:38;;;;;;;;;;;11.70;99.90;;;;;;4923724;29;19918;-81
2022/03/15 12:57:28;;;;;;;;;;;11.80;99.90;;;;;;4937492;29;20022;-80
2022/03/15 13:00:16;;;;;;;;;;;11.90;99.90;;;;;;4937245;29;19926;-80
2022/03/15 13:03:01;;;;;;;;;;;11.90;99.90;;;;;;4937706;29;19917;-82
2022/03/15 13:05:45;;;;;;;;;;;11.90;99.90;;;;;;4923346;29;19946;-81
2022/03/15 13:08:31;;;;;;;;;;;11.90;99.90;;;;;;4923603;29;19965;-81
2022/03/15 13:11:16;;;;;;;;;;;12.00;99.90;;;;;;4922697;29;19922;-81
2022/03/15 13:14:00;;;;;;;;;;;12.10;99.90;;;;;;4923355;29;19921;-81
2022/03/15 13:16:45;;;;;;;;;;;12.30;99.90;;;;;;4937665;29;19922;-81
2022/03/15 13:19:31;;;;;;;;;;;12.50;99.90;;;;;;4923243;29;20425;-81
2022/03/15 13:22:27;;;;;;;;;;;12.80;99.90;;;;;;4922606;29;19918;-80
2022/03/15 13:25:12;;;;;;;;;;;13.10;99.90;;;;;;4935985;29;19963;-81
2022/03/15 13:27:56;;;;;;;;;;;13.20;99.90;;;;;;4937402;29;19921;-80
2022/03/15 13:30:43;;;;;;;;;;;13.20;99.90;;;;;;4923001;29;19922;-82
2022/03/15 13:33:32;;;;;;;;;;;13.30;99.90;;;;;;4936761;29;19962;-80
2022/03/15 13:36:21;;;;;;;;;;;13.40;99.90;;;;;;4922281;29;19933;-81
2022/03/15 13:39:06;;;;;;;;;;;13.40;99.90;;;;;;4922489;29;19918;-83
2022/03/15 13:41:52;;;;;;;;;;;13.40;99.90;;;;;;4937180;29;19961;-80
2022/03/15 13:44:38;;;;;;;;;;;13.60;99.90;;;;;;4922800;29;19930;-81
2022/03/15 13:47:25;;;;;;;;;;;13.70;99.90;;;;;;4936439;29;19969;-80
2022/03/15 13:50:10;;;;;;;;;;;;;;;;;;4936588;29;19921;-80
2022/03/15 13:52:54;;;;;;;;;;;13.90;99.90;;;;;;4937049;29;19969;-81
2022/03/15 13:55:39;;;;;;;;;;;13.90;99.90;;;;;;4922585;29;19918;-80
2022/03/15 13:58:29;;;;;;;;;;;13.90;99.90;;;;;;4935484;29;20291;-81
2022/03/15 14:01:15;;;;;;;;;;;;;;;;;;4921914;29;19970;-80
2022/03/15 14:04:17;;;;;;;;;;;13.80;99.90;;;;;;4936697;29;19966;-81
2022/03/15 14:07:03;;;;;;;;;;;13.80;99.90;;;;;;4936674;29;19921;-80
2022/03/15 14:09:48;;;;;;;;;;;;;;;;;;4935719;29;20380;-80
2022/03/15 14:12:32;;;;;;;;;;;;;;;;;;4921775;29;20005;-80
2022/03/15 14:15:18;;;;;;;;;;;;;;;;;;4921704;29;20267;-81
2022/03/15 14:18:02;;;;;;;;;;;13.80;99.90;;;;;;4922074;29;19918;-80
2022/03/15 14:20:46;;;;;;;;;;;13.60;99.90;;;;;;4936432;29;19934;-81
2022/03/15 14:23:31;;;;;;;;;;;;;;;;;;4934931;29;19961;-80
2022/03/15 14:26:16;;;;;;;;;;;;;;;;;;4935748;29;19921;-81
2022/03/15 14:29:06;;;;;;;;;;;13.70;99.90;;;;;;4921845;29;20009;-80
2022/03/15 14:31:50;;;;;;;;;;;;;;;;;;4921871;29;19958;-80
2022/03/15 14:34:41;;;;;;;;;;;13.80;99.90;;;;;;4920929;29;20059;-80
2022/03/15 14:37:26;;;;;;;;;;;13.70;99.90;;;;;;4921147;29;19925;-81
2022/03/15 14:40:12;;;;;;;;;;;;;;;;;;4936148;29;19918;-81
2022/03/15 14:43:02;;;;;;;;;;;13.70;99.90;;;;;;4921751;29;19962;-80
2022/03/15 14:45:47;;;;;;;;;;;13.70;99.90;;;;;;4935111;29;19925;-80
2022/03/15 14:48:32;;;;;;;;;;;;;;;;;;4935339;29;19921;-81
2022/03/15 14:51:16;;;;;;;;;;;;;;;;;;4935255;29;19957;-82
2022/03/15 14:54:03;;;;;;;;;;;13.60;99.90;;;;;;4921589;29;19918;-81
2022/03/15 14:56:47;;;;;;;;;;;13.60;99.90;;;;;;4935982;29;19969;-81
2022/03/15 14:59:32;;;;;;;;;;;;;;;;;;4935301;29;19922;-81
2022/03/15 15:02:19;;;;;;;;;;;13.60;99.90;;;;;;4935253;29;20378;-82
2022/03/15 15:05:04;;;;;;;;;;;;;;;;;;4935793;29;20009;-81
2022/03/15 15:07:49;;;;;;;;;;;;;;;;;;4935668;29;20422;-81
2022/03/15 15:10:33;;;;;;;;;;;13.30;99.90;;;;;;4920588;29;20054;-81
2022/03/15 15:13:17;;;;;;;;;;;;;;;;;;4920853;29;19917;-83
2022/03/15 15:16:02;;;;;;;;;;;13.20;99.90;;;;;;4921056;29;19973;-81
2022/03/15 15:18:47;;;;;;;;;;;13.30;99.90;;;;;;4934477;29;19966;-81
2022/03/15 15:21:33;;;;;;;;;;;13.40;99.90;;;;;;4933998;29;19937;-81
2022/03/15 15:24:18;;;;;;;;;;;;;;;;;;4920904;29;19917;-83
2022/03/15 15:27:04;;;;;;;;;;;13.50;99.90;;;;;;4935388;29;19970;-80
2022/03/15 15:29:48;;;;;;;;;;;13.50;99.90;;;;;;4935304;29;19981;-80
2022/03/15 15:32:34;;;;;;;;;;;13.40;99.90;;;;;;4933904;29;19921;-81
2022/03/15 15:35:19;;;;;;;;;;;;;;;;;;4920669;29;19918;-82
2022/03/15 15:38:05;;;;;;;;;;;13.30;99.90;;;;;;4920890;29;20327;-80
2022/03/15 15:40:51;;;;;;;;;;;13.20;99.90;;;;;;4920780;29;20386;-81
2022/03/15 15:43:39;;;;;;;;;;;;;;;;;;4933685;29;19962;-80
2022/03/15 15:46:23;;;;;;;;;;;13.10;99.90;;;;;;4920212;29;19966;-81
2022/03/15 15:49:08;;;;;;;;;;;13.00;99.90;;;;;;4924837;29;19974;-80
2022/03/15 15:51:53;;;;;;;;;;;13.00;99.90;;;;;;4939179;29;20010;-80
2022/03/15 15:54:38;;;;;;;;;;;12.80;99.90;;;;;;4924177;29;20382;-81
2022/03/15 15:57:25;;;;;;;;;;;;;;;;;;4937866;29;20295;-84
2022/03/15 16:00:09;;;;;;;;;;;;;;;;;;4939087;29;19926;-81
2022/03/15 16:02:54;;;;;;;;;;;12.70;99.90;;;;;;4939142;29;20001;-81
2022/03/15 16:05:42;;;;;;;;;;;12.70;99.90;;;;;;4938346;29;19921;-80
2022/03/15 16:08:26;;;;;;;;;;;12.60;99.90;;;;;;4923846;29;20267;-82
2022/03/15 16:11:21;;;;;;;;;;;12.50;99.90;;;;;;4938956;29;19964;-81